Time;durP1;ratioP1;P1;durP2;ratioP2;P2;SDS_P1;SDS_P2;PMS_P1;PMS_P2;Temp;Humidity;BMP_temperature;BMP_pressure;BME280_temperature;BME280_humidity;BME280_pressure;Samples;Min_cycle;Max_cycle;Signal;HPM_P1;HPM_P2
2022/01/19 00:00:50;;;;;;;67.15;28.83;;;;;;;-0.69;100.00;103241.94;5310297;28;20032;-84
2022/01/19 00:03:21;;;;;;;76.22;29.70;;;;;;;-0.87;100.00;103229.84;5322266;28;20044;-84
2022/01/19 00:05:53;;;;;;;78.55;31.20;;;;;;;-0.92;100.00;103215.88;5331579;28;20119;-83
2022/01/19 00:08:26;;;;;;;78.80;31.20;;;;;;;-0.88;100.00;103211.50;5331320;27;20097;-84
2022/01/19 00:10:57;;;;;;;72.53;30.08;;;;;;;-0.89;100.00;103215.88;5331383;27;20479;-84
2022/01/19 00:13:29;;;;;;;78.07;29.95;;;;;;;-0.64;100.00;103220.94;5331510;27;20062;-83
2022/01/19 00:16:01;;;;;;;74.57;30.77;;;;;;;-0.51;100.00;103234.81;5327254;28;20024;-83
2022/01/19 00:18:32;;;;;;;78.63;31.83;;;;;;;-0.41;100.00;103231.25;5331332;27;20050;-83
2022/01/19 00:21:04;;;;;;;79.00;30.60;;;;;;;-0.69;100.00;103230.59;5326212;27;20030;-83
2022/01/19 00:23:36;;;;;;;76.85;29.63;;;;;;;-0.74;100.00;103227.13;5327206;27;20039;-83
2022/01/19 00:26:08;;;;;;;87.97;34.53;;;;;;;-0.86;100.00;103208.00;5326004;28;20032;-83
2022/01/19 00:28:39;;;;;;;99.03;35.75;;;;;;;-0.78;100.00;103200.94;5327653;27;20032;-83
2022/01/19 00:31:10;;;;;;;91.78;34.67;;;;;;;-0.77;100.00;103189.59;5328793;27;20488;-83
2022/01/19 00:33:42;;;;;;;91.82;34.85;;;;;;;-0.82;100.00;103164.31;5327675;27;20426;-83
2022/01/19 00:36:13;;;;;;;109.82;38.15;;;;;;;-0.82;100.00;103146.81;5327310;27;20025;-83
2022/01/19 00:38:44;;;;;;;115.65;40.67;;;;;;;-0.74;100.00;103131.00;5326801;27;20111;-82
2022/01/19 00:41:15;;;;;;;169.85;42.03;;;;;;;-0.62;100.00;103122.19;5326814;28;20027;-83
2022/01/19 00:43:47;;;;;;;169.88;43.10;;;;;;;-0.52;100.00;103115.97;5326611;28;20012;-83
2022/01/19 00:46:18;;;;;;;178.07;37.55;;;;;;;-0.32;100.00;103120.13;5326524;27;20021;-83
2022/01/19 00:48:49;;;;;;;173.75;39.03;;;;;;;-0.49;100.00;103136.91;5326921;27;20395;-83
2022/01/19 00:51:21;;;;;;;284.90;44.20;;;;;;;-0.40;100.00;103141.22;5326344;27;20024;-83
2022/01/19 00:53:52;;;;;;;237.75;41.83;;;;;;;-0.53;100.00;103145.69;5327208;27;20085;-83
2022/01/19 00:56:23;;;;;;;187.05;41.00;;;;;;;-0.58;100.00;103142.22;5326835;27;20020;-84
2022/01/19 00:58:55;;;;;;;345.27;45.85;;;;;;;-0.50;100.00;103143.03;5320169;28;43190;-82
2022/01/19 01:01:27;;;;;;;124.45;36.85;;;;;;;-0.81;100.00;103145.94;5326046;27;20024;-81
2022/01/19 01:03:58;;;;;;;110.38;35.80;;;;;;;-0.85;100.00;103156.47;5325211;28;20079;-82
2022/01/19 01:06:30;;;;;;;174.05;36.35;;;;;;;-0.65;100.00;103151.03;5324656;28;20048;-82
2022/01/19 01:09:02;;;;;;;142.43;37.10;;;;;;;-0.87;100.00;103151.22;5326554;27;20392;-82
2022/01/19 01:11:36;;;;;;;123.57;37.15;;;;;;;-0.91;100.00;103128.56;5326073;27;20058;-82
2022/01/19 01:16:58;;;;;;;149.88;33.63;;;;;;;-0.52;100.00;103115.97;5326787;27;20031;-82
2022/01/19 01:19:29;;;;;;;148.98;39.22;;;;;;;-0.76;100.00;103103.94;5324448;28;20059;-82
2022/01/19 01:22:01;;;;;;;134.73;30.85;;;;;;;-0.50;100.00;103098.47;5326488;27;20109;-82
2022/01/19 01:24:32;;;;;;;177.55;40.72;;;;;;;-0.74;100.00;103082.97;5326504;27;20078;-82
2022/01/19 01:27:03;;;;;;;191.52;38.55;;;;;;;-0.66;100.00;103075.91;5325508;27;20546;-82
2022/01/19 01:29:35;;;;;;;156.20;39.38;;;;;;;-0.57;100.00;103078.44;5324742;28;20071;-82
2022/01/19 01:32:07;;;;;;;173.52;40.33;;;;;;;-0.59;100.00;103059.25;5322818;28;20525;-82
2022/01/19 01:34:38;;;;;;;144.48;39.67;;;;;;;-0.58;100.00;103045.22;5334768;28;20456;-83
2022/01/19 01:37:10;;;;;;;216.80;45.42;;;;;;;-0.39;100.00;103043.28;5337417;27;20044;-84
2022/01/19 01:39:42;;;;;;;163.52;43.40;;;;;;;-0.41;100.00;103014.44;5338349;27;20035;-83
2022/01/19 01:42:17;;;;;;;139.07;44.83;;;;;;;-0.30;100.00;103016.97;5332623;28;20024;-83
2022/01/19 01:44:51;;;;;;;130.27;44.00;;;;;;;-0.27;100.00;103003.78;5329616;27;20020;-82
2022/01/19 01:47:23;;;;;;;130.55;44.00;;;;;;;-0.37;100.00;103004.78;5328531;27;20031;-83
2022/01/19 01:55:20;;;;;;;134.30;45.78;;;;;;;-0.20;100.00;103025.56;5312480;28;20032;-83
2022/01/19 01:57:52;;;;;;;161.63;42.92;;;;;;;-0.51;100.00;103020.69;5326894;27;20036;-83
2022/01/19 02:00:25;;;;;;;148.60;40.78;;;;;;;-0.58;100.00;103034.75;5325253;28;20020;-83
2022/01/19 02:02:56;;;;;;;95.93;33.40;;;;;;;-0.31;100.00;103025.69;5325941;27;20044;-83
2022/01/19 02:05:29;;;;;;;115.63;38.20;;;;;;;-0.46;100.00;103016.25;5327094;27;20024;-83
2022/01/19 02:08:09;;;;;;;135.30;41.75;;;;;;;-0.71;100.00;102993.84;5326286;28;20024;-83
2022/01/19 02:11:01;;;;;;;110.53;38.85;;;;;;;-0.79;100.00;102993.91;5325155;27;20028;-84
2022/01/19 02:16:32;;;;;;;141.40;39.47;;;;;;;-1.30;100.00;102993.53;5323526;28;20036;-83
2022/01/19 02:22:01;;;;;;;66.10;27.50;;;;;;;-1.14;100.00;102979.41;5323049;27;20499;-83
2022/01/19 02:24:43;;;;;;;121.40;37.17;;;;;;;-1.76;100.00;102990.38;5325094;28;20035;-83
2022/01/19 02:31:11;;;;;;;196.52;31.83;;;;;;;-1.36;100.00;102968.28;5318242;28;20446;-84
2022/01/19 02:36:49;;;;;;;101.35;36.88;;;;;;;-1.61;100.00;102933.59;5324903;28;20103;-83
2022/01/19 02:42:13;;;;;;;96.05;34.47;;;;;;;-1.94;100.00;102904.19;5324577;28;20111;-84
2022/01/19 02:49:53;;;;;;;76.82;31.30;;;;;;;-1.94;100.00;102893.75;5321401;27;20047;-84
2022/01/19 02:52:25;;;;;;;88.28;31.02;;;;;;;-2.01;100.00;102892.06;5324944;27;20484;-83
2022/01/19 02:54:56;;;;;;;88.15;31.17;;;;;;;-2.22;100.00;102893.06;5324671;27;20480;-83
2022/01/19 02:57:28;;;;;;;82.38;32.67;;;;;;;-2.36;100.00;102898.38;5325036;27;20074;-83
2022/01/19 03:11:20;;;;;;;85.83;31.57;;;;;;;-2.16;100.00;102872.09;5324062;27;20034;-84
2022/01/19 03:13:51;;;;;;;79.57;31.33;;;;;;;-1.88;100.00;102859.66;5324456;27;20277;-83
2022/01/19 03:16:23;;;;;;;79.35;29.92;;;;;;;-1.64;100.00;102865.56;5323347;28;20450;-84
2022/01/19 03:18:54;;;;;;;83.90;34.25;;;;;;;-1.62;100.00;102853.34;5325031;27;20042;-84
2022/01/19 03:21:25;;;;;;;110.68;39.40;;;;;;;-1.63;100.00;102842.03;5316353;28;20030;-83
2022/01/19 03:23:57;;;;;;;118.18;39.70;;;;;;;-1.62;100.00;102830.66;5325408;27;20090;-83
2022/01/19 03:26:29;;;;;;;111.50;41.58;;;;;;;-1.58;100.00;102837.59;5325247;27;20018;-83
2022/01/19 03:29:00;;;;;;;146.75;48.40;;;;;;;-1.55;100.00;102840.16;5326142;28;20032;-83
2022/01/19 03:31:31;;;;;;;141.43;46.28;;;;;;;-1.40;100.00;102833.06;5315410;27;20025;-82
2022/01/19 03:34:03;;;;;;;160.52;50.47;;;;;;;-1.30;100.00;102826.81;5326758;28;20020;-83
2022/01/19 03:36:35;;;;;;;158.55;53.72;;;;;;;-1.23;100.00;102818.00;5325146;27;20584;-83
2022/01/19 03:39:06;;;;;;;165.38;55.92;;;;;;;-1.13;100.00;102816.16;5325858;27;20032;-84
2022/01/19 03:41:38;;;;;;;172.23;55.78;;;;;;;-1.03;100.00;102822.16;5324834;27;20392;-82
2022/01/19 03:44:10;;;;;;;173.65;56.97;;;;;;;-1.03;100.00;102815.16;5324681;27;20041;-84
2022/01/19 03:46:59;;;;;;;172.90;57.15;;;;;;;-0.96;100.00;102816.81;5320260;27;20056;-83
2022/01/19 03:49:33;;;;;;;175.82;55.42;;;;;;;-0.96;100.00;102803.72;5310183;28;20024;-83
2022/01/19 03:52:05;;;;;;;175.90;56.42;;;;;;;-0.90;100.00;102791.41;5323102;28;20020;-83
2022/01/19 03:54:41;;;;;;;171.95;54.78;;;;;;;-0.90;100.00;102786.19;5324737;27;20465;-83
2022/01/19 03:57:13;;;;;;;180.65;56.28;;;;;;;-0.90;100.00;102783.56;5327767;28;20035;-83
2022/01/19 03:59:44;;;;;;;180.25;58.50;;;;;;;-0.88;100.00;102784.41;5328875;27;20031;-83
2022/01/19 04:02:15;;;;;;;187.50;59.25;;;;;;;-0.83;100.00;102778.19;5323461;27;20040;-82
2022/01/19 04:04:53;;;;;;;193.30;58.85;;;;;;;-0.82;100.00;102768.59;5324432;28;20103;-82
2022/01/19 04:07:24;;;;;;;189.23;61.53;;;;;;;-0.79;100.00;102773.78;5313382;28;20483;-82
2022/01/19 04:09:56;;;;;;;186.05;59.47;;;;;;;-0.77;100.00;102769.41;5317939;28;20021;-82
2022/01/19 04:12:43;;;;;;;188.30;58.67;;;;;;;-0.69;100.00;102774.53;5328384;28;20024;-82
2022/01/19 04:15:15;;;;;;;;;;;;;;;-0.85;100.00;102768.63;5319756;28;20065;-82
2022/01/19 04:17:52;;;;;;;187.85;58.10;;;;;;;-0.84;100.00;102762.50;5320372;27;19922;-82
2022/01/19 04:20:25;;;;;;;193.43;59.60;;;;;;;-0.97;100.00;102746.94;5328639;27;20016;-82
2022/01/19 04:22:57;;;;;;;195.48;65.20;;;;;;;-0.86;100.00;102759.91;5327810;27;20020;-82
2022/01/19 04:25:28;;;;;;;216.57;74.15;;;;;;;-0.73;100.00;102762.38;5325181;28;20035;-82
2022/01/19 04:28:06;;;;;;;241.25;78.03;;;;;;;-0.76;100.00;102750.16;5328403;27;20384;-83
2022/01/19 04:30:39;;;;;;;220.95;67.30;;;;;;;-0.73;100.00;102755.34;5326188;28;20040;-83
2022/01/19 04:33:15;;;;;;;225.35;77.68;;;;;;;-0.60;100.00;102771.75;5328140;27;20056;-83
2022/01/19 04:35:51;;;;;;;233.80;70.32;;;;;;;-0.63;100.00;102764.81;5327863;27;20035;-83
2022/01/19 04:54:40;;;;;;;305.60;82.32;;;;;;;-0.50;100.00;102760.25;5327315;27;20035;-83
2022/01/19 05:13:31;;;;;;;306.63;89.47;;;;;;;-0.38;100.00;102748.69;5322727;28;20044;-83
2022/01/19 05:16:03;;;;;;;275.65;66.38;;;;;;;-0.41;100.00;102740.88;5324853;28;20085;-83
2022/01/19 05:18:35;;;;;;;297.38;76.82;;;;;;;-0.45;100.00;102739.22;5322779;27;20052;-83
2022/01/19 05:21:06;;;;;;;286.67;73.95;;;;;;;-0.40;100.00;102750.50;5326734;27;20024;-82
2022/01/19 05:23:37;;;;;;;291.35;68.28;;;;;;;-0.44;100.00;102747.06;5325523;27;20114;-83
2022/01/19 05:26:10;;;;;;;265.77;70.30;;;;;;;-0.36;100.00;102754.78;5324426;27;20031;-83
2022/01/19 05:28:41;;;;;;;252.90;71.05;;;;;;;-0.34;100.00;102754.75;5325946;27;20067;-84
2022/01/19 05:31:12;;;;;;;241.00;70.00;;;;;;;-0.29;100.00;102753.78;5325338;27;20024;-83
2022/01/19 05:33:44;;;;;;;239.32;65.80;;;;;;;-0.27;100.00;102753.75;5320791;28;20488;-84
2022/01/19 05:36:15;;;;;;;240.23;67.22;;;;;;;-0.29;100.00;102764.28;5325138;27;20028;-83
2022/01/19 05:38:46;;;;;;;230.48;64.55;;;;;;;-0.17;100.00;102749.25;5323103;28;20067;-83
2022/01/19 05:41:18;;;;;;;241.82;62.53;;;;;;;-0.19;100.00;102746.63;5325015;28;20464;-83
2022/01/19 05:43:49;;;;;;;228.20;62.45;;;;;;;-0.07;100.00;102751.69;5325999;27;20089;-83
2022/01/19 05:46:21;;;;;;;222.52;66.22;;;;;;;-0.12;100.00;102748.25;5324959;28;20024;-84
2022/01/19 05:48:52;;;;;;;222.38;66.38;;;;;;;-0.14;100.00;102736.03;5325828;27;20024;-84
2022/01/19 05:51:24;;;;;;;217.50;60.63;;;;;;;-0.10;100.00;102738.59;5323614;28;20035;-84
2022/01/19 05:53:55;;;;;;;206.15;66.57;;;;;;;-0.09;100.00;102732.47;5325057;28;20098;-84
2022/01/19 05:56:26;;;;;;;170.93;53.97;;;;;;;0.06;100.00;102733.94;5325119;27;20056;-84
2022/01/19 05:58:58;;;;;;;188.65;63.95;;;;;;;-0.02;100.00;102738.44;5324551;28;20044;-84
2022/01/19 06:01:29;;;;;;;183.52;61.97;;;;;;;-0.04;100.00;102721.88;5321762;28;20036;-84
2022/01/19 06:04:00;;;;;;;194.98;61.80;;;;;;;0.01;100.00;102729.69;5323362;28;20044;-84
2022/01/19 06:06:32;;;;;;;185.13;61.72;;;;;;;0.09;100.00;102736.50;5324669;27;20060;-83
2022/01/19 06:09:10;;;;;;;176.18;59.92;;;;;;;0.08;100.00;102731.28;5327033;27;20162;-83
2022/01/19 06:11:41;;;;;;;192.13;57.40;;;;;;;0.10;100.00;102717.22;5326322;28;20376;-84
2022/01/19 06:14:12;;;;;;;184.57;56.88;;;;;;;0.19;100.00;102724.06;5326667;28;20032;-83
2022/01/19 06:16:45;;;;;;;175.90;64.45;;;;;;;0.15;100.00;102725.03;5326526;27;20077;-83
2022/01/19 06:19:19;;;;;;;169.75;53.13;;;;;;;0.10;100.00;102708.50;5325812;27;20035;-85
2022/01/19 06:21:51;;;;;;;162.13;55.72;;;;;;;0.29;100.00;102714.28;5326594;27;20020;-84
2022/01/19 06:24:22;;;;;;;162.95;53.97;;;;;;;0.35;100.00;102717.66;5327232;27;20031;-84
2022/01/19 06:26:54;;;;;;;157.50;54.85;;;;;;;0.32;100.00;102703.72;5328404;27;20024;-84
2022/01/19 06:29:26;;;;;;;148.00;52.15;;;;;;;0.45;100.00;102709.56;5326734;27;20039;-84
2022/01/19 06:31:57;;;;;;;148.60;53.70;;;;;;;0.31;100.00;102710.69;5323978;28;20028;-84
2022/01/19 06:34:28;;;;;;;150.23;53.60;;;;;;;0.32;100.00;102704.56;5328233;27;20024;-84
2022/01/19 06:37:00;;;;;;;136.65;50.70;;;;;;;0.46;100.00;102701.66;5326163;27;20238;-82
2022/01/19 06:39:31;;;;;;;157.20;53.92;;;;;;;0.31;100.00;102689.69;5327563;28;20410;-82
2022/01/19 06:42:03;;;;;;;149.55;54.30;;;;;;;0.39;100.00;102681.69;5327420;27;20062;-84
2022/01/19 06:44:34;;;;;;;136.43;50.30;;;;;;;0.37;100.00;102667.75;5326790;27;20115;-84
2022/01/19 06:47:06;;;;;;;160.98;52.60;;;;;;;0.38;100.00;102665.06;5325378;27;20104;-84
2022/01/19 06:49:37;;;;;;;142.57;56.25;;;;;;;0.36;100.00;102674.72;5329438;28;20525;-83
2022/01/19 06:52:08;;;;;;;140.40;53.10;;;;;;;0.29;100.00;102659.16;5329803;27;20024;-84
2022/01/19 06:54:40;;;;;;;134.65;51.72;;;;;;;0.32;100.00;102665.19;5329497;27;20505;-84
2022/01/19 06:57:11;;;;;;;117.22;47.55;;;;;;;0.46;100.00;102657.03;5330222;27;20039;-84
2022/01/19 06:59:43;;;;;;;128.30;57.28;;;;;;;0.43;100.00;102658.88;5331730;27;20020;-83
2022/01/19 07:02:14;;;;;;;125.30;48.63;;;;;;;0.50;100.00;102656.06;5324129;28;20037;-83
2022/01/19 07:04:49;;;;;;;132.80;53.13;;;;;;;0.46;100.00;102651.78;5325019;28;20106;-84
2022/01/19 07:07:21;;;;;;;132.73;48.10;;;;;;;0.49;100.00;102648.22;5325645;27;20039;-85
2022/01/19 07:09:54;;;;;;;123.88;49.33;;;;;;;0.51;100.00;102649.91;5331123;27;20028;-83
2022/01/19 07:12:29;;;;;;;127.95;50.17;;;;;;;0.48;100.00;102646.50;5326684;27;20085;-84
2022/01/19 07:15:00;;;;;;;111.10;44.83;;;;;;;0.65;100.00;102647.00;5324953;28;20082;-84
2022/01/19 07:17:32;;;;;;;115.35;46.88;;;;;;;0.45;100.00;102634.28;5326391;27;20029;-83
2022/01/19 07:20:04;;;;;;;124.68;49.80;;;;;;;0.50;100.00;102631.56;5326004;27;20063;-84
2022/01/19 07:22:36;;;;;;;118.38;54.38;;;;;;;0.54;100.00;102638.47;5326403;27;20153;-84
2022/01/19 07:25:08;;;;;;;110.80;45.17;;;;;;;0.61;100.00;102637.44;5326917;27;20099;-83
2022/01/19 07:27:39;;;;;;;110.68;46.78;;;;;;;0.62;100.00;102630.44;5327899;27;20036;-84
2022/01/19 07:30:12;;;;;;;107.65;44.83;;;;;;;0.73;100.00;102638.94;5328416;28;20475;-84
2022/01/19 07:32:43;;;;;;;112.18;49.60;;;;;;;0.64;100.00;102639.16;5330560;27;20032;-84
2022/01/19 07:35:16;;;;;;;101.55;45.03;;;;;;;0.68;100.00;102639.03;5330829;27;20114;-84
2022/01/19 07:37:47;;;;;;;102.07;47.03;;;;;;;0.72;100.00;102630.19;5329200;28;20043;-84
2022/01/19 07:40:19;;;;;;;100.03;43.92;;;;;;;0.80;100.00;102635.25;5329873;27;20087;-84
2022/01/19 07:42:51;;;;;;;100.43;44.60;;;;;;;0.82;100.00;102633.44;5329744;27;20019;-84
2022/01/19 07:45:23;;;;;;;98.20;42.15;;;;;;;0.85;100.00;102625.50;5327062;28;20194;-84
2022/01/19 07:47:55;;;;;;;97.15;48.33;;;;;;;0.81;100.00;102613.34;5329573;27;20099;-84
2022/01/19 07:50:26;;;;;;;95.72;41.97;;;;;;;0.84;100.00;102617.66;5328002;28;20048;-84
2022/01/19 07:52:58;;;;;;;90.72;46.78;;;;;;;0.77;100.00;102608.19;5327102;28;20021;-84
2022/01/19 07:55:30;;;;;;;94.35;39.00;;;;;;;0.92;100.00;102624.47;5329140;27;20023;-85
2022/01/19 07:58:02;;;;;;;84.97;39.78;;;;;;;0.91;100.00;102625.38;5329126;28;20032;-85
2022/01/19 08:00:35;;;;;;;91.47;41.03;;;;;;;0.94;100.00;102612.16;5328683;28;20020;-84
2022/01/19 08:03:06;;;;;;;88.68;39.05;;;;;;;0.98;100.00;102612.09;5313749;28;20491;-84
2022/01/19 08:05:37;;;;;;;83.50;43.15;;;;;;;0.89;100.00;102600.88;5307587;28;20055;-84
2022/01/19 08:08:09;;;;;;;80.93;36.78;;;;;;;1.07;100.00;102612.72;5317625;28;20024;-84
2022/01/19 08:10:42;;;;;;;85.07;39.25;;;;;;;1.09;100.00;102610.91;5329217;27;20024;-84
2022/01/19 08:13:15;;;;;;;76.00;36.95;;;;;;;1.11;100.00;102618.78;5329016;28;20051;-84
2022/01/19 08:15:46;;;;;;;84.93;40.67;;;;;;;1.11;100.00;102613.53;5329521;27;20077;-84
2022/01/19 08:18:17;;;;;;;81.28;40.67;;;;;;;1.11;100.00;102613.53;5331204;27;20061;-85
2022/01/19 08:20:49;;;;;;;82.75;38.40;;;;;;;1.23;100.00;102604.47;5327634;28;20431;-84
2022/01/19 08:23:20;;;;;;;82.38;41.13;;;;;;;1.10;100.00;102582.88;5330734;27;20032;-83
2022/01/19 08:25:52;;;;;;;81.72;39.78;;;;;;;1.15;100.00;102595.91;5334402;28;20016;-83
2022/01/19 08:28:24;;;;;;;73.57;37.35;;;;;;;1.15;100.00;102594.13;5335694;28;20059;-84
2022/01/19 08:30:55;;;;;;;74.13;37.42;;;;;;;1.20;100.00;102589.63;5334847;28;20040;-85
2022/01/19 08:33:26;;;;;;;72.43;37.28;;;;;;;1.19;100.00;102585.25;5325701;28;20242;-85
2022/01/19 08:35:58;;;;;;;73.32;36.70;;;;;;;1.14;100.00;102571.41;5340445;28;20035;-84
2022/01/19 08:38:29;;;;;;;77.18;35.75;;;;;;;1.27;100.00;102578.03;5339770;28;20028;-84
2022/01/19 08:41:01;;;;;;;72.13;36.67;;;;;;;1.35;100.00;102584.88;5338148;27;20077;-84
2022/01/19 08:43:32;;;;;;;71.88;39.20;;;;;;;1.20;100.00;102565.97;5335808;28;20426;-84
2022/01/19 08:46:04;;;;;;;68.68;35.97;;;;;;;1.38;100.00;102585.66;5327616;28;20020;-84
2022/01/19 08:48:35;;;;;;;65.90;34.00;;;;;;;1.37;100.00;102562.00;5329428;27;20035;-84
2022/01/19 08:51:07;;;;;;;68.78;38.63;;;;;;;1.45;100.00;102574.06;5328691;27;20495;-84
2022/01/19 08:53:40;;;;;;;70.05;36.63;;;;;;;1.32;100.00;102544.59;5328734;27;20388;-85
2022/01/19 08:56:11;;;;;;;70.38;34.58;;;;;;;1.40;100.00;102543.53;5328306;27;20035;-85
2022/01/19 08:58:42;;;;;;;68.82;37.33;;;;;;;1.27;100.00;102530.72;5328040;27;20483;-85
2022/01/19 09:01:15;;;;;;;66.22;36.95;;;;;;;1.50;100.00;102559.03;5328347;28;20095;-85
2022/01/19 09:03:46;;;;;;;65.03;35.92;;;;;;;1.53;100.00;102557.22;5329100;27;20044;-85
2022/01/19 09:06:20;;;;;;;61.97;33.13;;;;;;;1.54;100.00;102540.53;5328684;27;20107;-85
2022/01/19 09:08:51;;;;;;;61.63;35.05;;;;;;;1.58;100.00;102548.31;5327863;27;20340;-85
2022/01/19 09:11:23;;;;;;;60.72;33.05;;;;;;;1.64;100.00;102550.75;5327559;28;20061;-85
2022/01/19 09:13:54;;;;;;;59.47;30.92;;;;;;;1.55;100.00;102522.09;5328382;27;20016;-84
2022/01/19 09:16:26;;;;;;;62.83;33.20;;;;;;;1.51;100.00;102525.72;5326699;28;20020;-85
2022/01/19 09:18:57;;;;;;;63.55;32.75;;;;;;;1.70;100.00;102552.34;5328925;27;20036;-84
2022/01/19 09:21:29;;;;;;;55.05;31.02;;;;;;;1.75;100.00;102534.66;5326826;28;20391;-85
2022/01/19 09:24:01;;;;;;;61.05;32.50;;;;;;;1.66;100.00;102527.88;5327935;28;20098;-85
2022/01/19 09:26:32;;;;;;;52.88;29.92;;;;;;;1.78;100.00;102534.56;5328732;27;20054;-84
2022/01/19 09:29:04;;;;;;;54.33;33.30;;;;;;;1.72;100.00;102529.50;5327681;27;20020;-85
2022/01/19 09:31:36;;;;;;;53.63;32.67;;;;;;;1.81;100.00;102536.28;5326134;28;20119;-84
2022/01/19 09:34:09;;;;;;;52.15;34.70;;;;;;;1.77;100.00;102527.59;5327568;27;20023;-84
2022/01/19 09:36:46;;;;;;;52.97;31.75;;;;;;;1.72;100.00;102511.09;5326068;28;20024;-84
2022/01/19 09:39:24;;;;;;;50.10;30.98;;;;;;;1.86;100.00;102524.69;5326979;27;20066;-84
2022/01/19 09:41:56;;;;;;;51.97;29.42;;;;;;;1.79;100.00;102511.75;5326610;27;21153;-84
2022/01/19 09:44:31;;;;;;;51.75;30.00;;;;;;;1.76;100.00;102483.78;5328690;27;20129;-84
2022/01/19 09:47:02;;;;;;;50.75;32.50;;;;;;;1.95;100.00;102526.19;5329716;27;20392;-84
2022/01/19 09:49:34;;;;;;;51.15;30.27;;;;;;;1.80;100.00;102480.13;5323399;28;20115;-84
2022/01/19 09:52:06;;;;;;;46.05;28.90;;;;;;;1.99;100.00;102495.38;5306270;28;20536;-85
2022/01/19 09:54:37;;;;;;;51.33;30.50;;;;;;;2.01;100.00;102493.56;5315047;28;20082;-84
2022/01/19 09:57:09;;;;;;;47.03;29.60;;;;;;;2.06;100.00;102496.91;5305740;28;20028;-84
2022/01/19 09:59:43;;;;;;;44.28;29.17;;;;;;;2.18;100.00;102485.16;5324915;28;20024;-84
2022/01/19 10:02:16;;;;;;;48.75;30.00;;;;;;;2.12;100.00;102483.53;5325864;27;20044;-84
2022/01/19 10:04:49;;;;;;;50.42;31.98;;;;;;;2.05;100.00;102466.22;5325310;28;20024;-84
2022/01/19 10:07:22;;;;;;;46.50;28.25;;;;;;;2.22;100.00;102476.22;5324280;28;20460;-84
2022/01/19 10:10:08;;;;;;;46.22;28.65;;;;;;;2.15;100.00;102451.00;5321912;28;20052;-84
2022/01/19 10:18:33;;;;;;;45.45;30.75;;;;;;;2.42;100.00;102471.19;5313214;28;20044;-84
2022/01/19 10:21:16;;;;;;;43.85;29.48;;;;;;;2.50;100.00;102468.31;5324155;28;20131;-84
2022/01/19 10:23:50;;;;;;;45.35;29.15;;;;;;;2.48;100.00;102475.41;5327044;27;20379;-84
2022/01/19 10:26:27;;;;;;;42.50;28.27;;;;;;;2.32;100.00;102432.91;5326122;27;20043;-84
2022/01/19 10:29:08;;;;;;;46.88;29.10;;;;;;;2.56;100.00;102473.38;5325910;27;20077;-84
2022/01/19 10:31:40;;;;;;;41.85;27.08;;;;;;;2.55;100.00;102457.63;5324837;27;20032;-84
2022/01/19 10:34:20;;;;;;;38.58;26.95;;;;;;;2.64;100.00;102455.53;5324155;28;20036;-84
2022/01/19 10:36:55;;;;;;;45.38;28.67;;;;;;;2.75;100.00;102462.22;5323811;28;20078;-85
2022/01/19 10:39:43;;;;;;;40.22;26.83;;;;;;;2.76;100.00;102448.13;5325906;27;20520;-85
2022/01/19 10:42:21;;;;;;;37.05;27.75;;;;;;;2.78;100.00;102441.88;5325247;27;20038;-85
2022/01/19 10:44:58;;;;;;;42.03;27.90;;;;;;;2.81;100.00;102433.03;5325552;27;20028;-84
2022/01/19 10:47:49;;;;;;;32.67;25.17;;;;;;;2.88;100.00;102431.03;5325538;27;20031;-84
2022/01/19 10:50:32;;;;;;;35.78;24.65;;;;;;;2.90;100.00;102416.03;5326294;27;20031;-84
2022/01/19 10:53:05;;;;;;;35.70;25.48;;;;;;;2.86;100.00;102424.94;5324565;28;20012;-84
2022/01/19 10:55:42;;;;;;;36.90;25.63;;;;;;;2.88;100.00;102428.41;5326317;27;20483;-84
2022/01/19 10:58:15;;;;;;;36.40;24.45;;;;;;;2.93;100.00;102435.22;5325531;27;20032;-84
2022/01/19 11:00:49;;;;;;;34.60;25.17;;;;;;;2.94;100.00;102431.66;5324324;27;20024;-83
2022/01/19 11:03:28;;;;;;;37.40;26.92;;;;;;;2.91;100.00;102410.72;5309041;27;20511;-84
2022/01/19 11:06:01;;;;;;;35.67;23.75;;;;;;;2.95;100.00;102417.59;5304237;28;20381;-84
2022/01/19 11:08:35;;;;;;;35.13;24.75;;;;;;;2.99;100.00;102406.00;5312495;28;20461;-84
2022/01/19 11:11:08;;;;;;;36.50;27.27;;;;;;;2.97;100.00;102412.25;5325983;27;20032;-84
2022/01/19 11:13:42;;;;;;;36.83;25.48;;;;;;;2.94;100.00;102402.66;5326004;27;20032;-84
2022/01/19 11:16:13;;;;;;;32.72;25.80;;;;;;;2.92;100.00;102393.13;5324534;27;20020;-84
2022/01/19 11:18:44;;;;;;;38.65;27.10;;;;;;;2.91;100.00;102386.09;5325277;28;20085;-83
2022/01/19 11:21:23;;;;;;;40.40;28.00;;;;;;;2.96;100.00;102389.44;5324732;27;20052;-84
2022/01/19 11:24:14;;;;;;;37.78;26.67;;;;;;;3.03;100.00;102380.38;5325149;27;20048;-84
2022/01/19 11:26:46;;;;;;;39.55;26.95;;;;;;;2.94;100.00;102368.41;5325066;27;20325;-84
2022/01/19 11:29:22;;;;;;;38.88;26.20;;;;;;;2.88;100.00;102347.56;5324832;28;20476;-84
2022/01/19 11:31:56;;;;;;;42.42;31.50;;;;;;;2.99;100.00;102376.16;5323682;28;20020;-84
2022/01/19 11:34:40;;;;;;;36.95;26.13;;;;;;;3.01;100.00;102363.78;5325645;27;20380;-84
2022/01/19 11:37:11;;;;;;;40.58;27.92;;;;;;;3.08;100.00;102353.88;5303387;28;20041;-84
2022/01/19 11:40:01;;;;;;;39.13;31.35;;;;;;;2.99;100.00;102336.63;5321405;28;20031;-84
2022/01/19 11:42:36;;;;;;;40.25;27.42;;;;;;;3.02;100.00;102340.00;5325086;27;20016;-84
2022/01/19 11:45:28;;;;;;;40.70;26.50;;;;;;;2.89;100.00;102307.09;5324641;27;20024;-84
2022/01/19 11:48:17;;;;;;;36.67;27.17;;;;;;;3.02;100.00;102325.97;5324290;28;20107;-84
2022/01/19 11:50:50;;;;;;;41.85;27.83;;;;;;;3.01;100.00;102314.53;5325055;27;20020;-84
2022/01/19 11:53:22;;;;;;;42.08;28.88;;;;;;;3.20;100.00;102324.41;5324841;27;20039;-84
2022/01/19 11:56:10;;;;;;;45.72;30.38;;;;;;;3.09;100.00;102326.59;5322615;28;20032;-84
2022/01/19 11:59:01;;;;;;;45.10;30.33;;;;;;;2.95;100.00;102291.06;5311210;28;20063;-84
2022/01/19 12:01:32;;;;;;;42.47;28.45;;;;;;;3.14;100.00;102300.91;5303256;28;20024;-84
2022/01/19 12:04:19;;;;;;;40.88;30.58;;;;;;;3.14;100.00;102307.03;5313980;28;20397;-84
2022/01/19 12:06:50;;;;;;;47.85;32.30;;;;;;;3.16;100.00;102310.47;5317876;27;20020;-84
2022/01/19 12:09:22;;;;;;;44.28;29.45;;;;;;;3.20;100.00;102293.59;5304172;28;20058;-84
2022/01/19 12:12:13;;;;;;;44.05;32.58;;;;;;;3.14;100.00;102290.38;5307983;28;20373;-84
2022/01/19 12:14:51;;;;;;;45.97;30.65;;;;;;;3.10;100.00;102275.56;5323261;28;20430;-84
2022/01/19 12:17:26;;;;;;;40.53;29.70;;;;;;;3.23;100.00;102292.66;5326122;27;20036;-84
2022/01/19 12:20:01;;;;;;;49.45;32.13;;;;;;;3.10;100.00;102268.50;5328425;27;20027;-84
2022/01/19 12:22:35;;;;;;;45.47;31.05;;;;;;;3.26;100.00;102262.66;5327743;27;20429;-84
2022/01/19 12:25:11;;;;;;;47.30;34.72;;;;;;;3.28;100.00;102266.97;5328454;27;20024;-84
2022/01/19 12:27:50;;;;;;;47.15;34.30;;;;;;;3.39;100.00;102250.69;5328419;27;20357;-84
2022/01/19 12:30:27;;;;;;;46.25;32.95;;;;;;;3.37;100.00;102239.34;5329561;27;20028;-83
2022/01/19 12:33:03;;;;;;;47.72;34.78;;;;;;;3.39;100.00;102258.63;5307506;28;20020;-84
2022/01/19 12:35:36;;;;;;;44.97;32.35;;;;;;;3.44;100.00;102247.84;5306859;28;20426;-83
2022/01/19 12:38:23;;;;;;;46.20;35.08;;;;;;;3.43;100.00;102249.66;5306492;28;20081;-84
2022/01/19 12:40:56;;;;;;;;;;;;;;;3.52;100.00;102251.91;5306974;28;20099;-84
2022/01/19 12:43:33;;;;;;;45.97;34.90;;;;;;;3.48;100.00;102239.78;5317797;28;19912;-84
2022/01/19 12:46:08;;;;;;;52.08;35.60;;;;;;;3.50;100.00;102232.66;5327207;27;20021;-85
2022/01/19 12:48:50;;;;;;;50.55;35.10;;;;;;;3.45;100.00;102212.66;5327584;27;20040;-83